WAT1341 ZSQD-ZBAA
Flight info
| Callsign | WAT1341 |
|---|---|
| Flight time | 1h 9m |
| Altitude | 40100 |
| Route | WFG81D WFG W103 YQG W160 TUMLO W157 BEKDO/K0848S1190 W157 AVBOX AVBOX6J |
| Aircraft | CL60/M-SADE3FGHIJ3J4J7P2RWXY/HB1D1 |
Departure
| Time | 2026-05-04 05:52 |
|---|---|
| Airport | Qingdao Jiaodong International Airport (ZSQD) |
Arrival
| Time | 2026-05-04 07:01 |
|---|---|
| Airport | Beijing Capital International Airport (ZBAA) |
| Time | Latitude | Longitude | Altitude | Speed | Heading |
|---|---|---|---|---|---|
| 2026-05-04 05:19 | 36.27640 | 120.37614 | 38 ft | 0 kts | 76° |
| 2026-05-04 05:40 | 36.40706 | 120.08333 | 30 ft | 0 kts | 77° |
| 2026-05-04 05:40 | 36.37609 | 120.08137 | 28 ft | 0 kts | 77° |
| 2026-05-04 05:40 | 36.36990 | 120.07849 | 28 ft | 0 kts | 76° |
| 2026-05-04 05:41 | 36.37383 | 120.07578 | 29 ft | 0 kts | 76° |
| 2026-05-04 05:51 | 36.37093 | 120.07195 | 30 ft | 15 kts | 199° |
| 2026-05-04 05:51 | 36.37005 | 120.07207 | 31 ft | 20 kts | 162° |
| 2026-05-04 05:52 | 36.36586 | 120.07372 | 29 ft | 112 kts | 162° |
| 2026-05-04 05:52 | 36.35605 | 120.07748 | 314 ft | 169 kts | 163° |
| 2026-05-04 05:52 | 36.34419 | 120.08191 | 1161 ft | 191 kts | 164° |
| 2026-05-04 05:52 | 36.33094 | 120.08704 | 2138 ft | 216 kts | 163° |
| 2026-05-04 05:53 | 36.31610 | 120.09283 | 3099 ft | 243 kts | 163° |
| 2026-05-04 05:54 | 36.19032 | 120.09587 | 10997 ft | 295 kts | 241° |
| 2026-05-04 05:55 | 36.18163 | 120.07335 | 12317 ft | 292 kts | 257° |
| 2026-05-04 05:55 | 36.17896 | 120.04907 | 13355 ft | 297 kts | 274° |
| 2026-05-04 05:55 | 36.18319 | 120.02278 | 13737 ft | 324 kts | 295° |
| 2026-05-04 05:55 | 36.19654 | 120.00032 | 14423 ft | 339 kts | 320° |
| 2026-05-04 05:56 | 36.21614 | 119.98345 | 15297 ft | 350 kts | 326° |
| 2026-05-04 05:56 | 36.23666 | 119.96684 | 16279 ft | 357 kts | 326° |
| 2026-05-04 05:56 | 36.25741 | 119.94995 | 17272 ft | 362 kts | 325° |
| 2026-05-04 05:56 | 36.27858 | 119.93269 | 18200 ft | 368 kts | 325° |
| 2026-05-04 05:57 | 36.30004 | 119.91518 | 19115 ft | 372 kts | 325° |
| 2026-05-04 05:57 | 36.32173 | 119.89749 | 19995 ft | 376 kts | 325° |
| 2026-05-04 05:57 | 36.34362 | 119.87960 | 20805 ft | 382 kts | 325° |
| 2026-05-04 05:57 | 36.36526 | 119.86091 | 21622 ft | 385 kts | 319° |
| 2026-05-04 05:58 | 36.38315 | 119.83595 | 22411 ft | 388 kts | 302° |
| 2026-05-04 05:58 | 36.39521 | 119.80620 | 23112 ft | 393 kts | 295° |
| 2026-05-04 05:58 | 36.40654 | 119.77522 | 23792 ft | 398 kts | 295° |
| 2026-05-04 05:58 | 36.41803 | 119.74398 | 24501 ft | 402 kts | 295° |
| 2026-05-04 05:59 | 36.42961 | 119.71246 | 25206 ft | 405 kts | 295° |
| 2026-05-04 05:59 | 36.44140 | 119.68038 | 25821 ft | 410 kts | 295° |
| 2026-05-04 05:59 | 36.45321 | 119.64841 | 26441 ft | 413 kts | 296° |
| 2026-05-04 05:59 | 36.46516 | 119.61601 | 27010 ft | 416 kts | 295° |
| 2026-05-04 06:00 | 36.47716 | 119.58349 | 27567 ft | 419 kts | 295° |
| 2026-05-04 06:00 | 36.48935 | 119.55038 | 28095 ft | 422 kts | 296° |
| 2026-05-04 06:00 | 36.50147 | 119.51746 | 28557 ft | 425 kts | 295° |
| 2026-05-04 06:00 | 36.51392 | 119.48357 | 29029 ft | 428 kts | 295° |
| 2026-05-04 06:01 | 36.52611 | 119.45039 | 29507 ft | 430 kts | 295° |
| 2026-05-04 06:01 | 36.53857 | 119.41642 | 30089 ft | 429 kts | 296° |
| 2026-05-04 06:03 | 36.62291 | 119.18548 | 33583 ft | 416 kts | 294° |
| 2026-05-04 06:03 | 36.63486 | 119.15250 | 33905 ft | 416 kts | 293° |
| 2026-05-04 06:05 | 36.66792 | 118.90720 | 36153 ft | 410 kts | 278° |
| 2026-05-04 06:05 | 36.67484 | 118.83698 | 36790 ft | 408 kts | 278° |
| 2026-05-04 06:05 | 36.67826 | 118.80206 | 37086 ft | 407 kts | 278° |
| 2026-05-04 06:06 | 36.68166 | 118.76727 | 37338 ft | 407 kts | 278° |
| 2026-05-04 06:06 | 36.68508 | 118.73221 | 37626 ft | 406 kts | 278° |
| 2026-05-04 06:06 | 36.68842 | 118.69777 | 37873 ft | 406 kts | 278° |
| 2026-05-04 06:06 | 36.69184 | 118.66253 | 38069 ft | 406 kts | 278° |
| 2026-05-04 06:07 | 36.69517 | 118.62796 | 38285 ft | 406 kts | 278° |
| 2026-05-04 06:07 | 36.69853 | 118.59310 | 38487 ft | 406 kts | 278° |
| 2026-05-04 06:07 | 36.70190 | 118.55805 | 38681 ft | 406 kts | 278° |
| 2026-05-04 06:07 | 36.70521 | 118.52338 | 38876 ft | 406 kts | 278° |
| 2026-05-04 06:08 | 36.70852 | 118.48868 | 39057 ft | 406 kts | 278° |
| 2026-05-04 06:08 | 36.71186 | 118.45355 | 39219 ft | 405 kts | 278° |
| 2026-05-04 06:08 | 36.71516 | 118.41869 | 39367 ft | 405 kts | 278° |
| 2026-05-04 06:08 | 36.71841 | 118.38428 | 39556 ft | 404 kts | 278° |
| 2026-05-04 06:09 | 36.72168 | 118.34963 | 39745 ft | 404 kts | 278° |
| 2026-05-04 06:09 | 36.72496 | 118.31465 | 39884 ft | 404 kts | 278° |
| 2026-05-04 06:11 | 36.74909 | 118.06872 | 40109 ft | 415 kts | 278° |
| 2026-05-04 06:13 | 36.77757 | 117.78290 | 40122 ft | 417 kts | 278° |
| 2026-05-04 06:14 | 36.80195 | 117.53242 | 40088 ft | 418 kts | 279° |
| 2026-05-04 06:15 | 36.80885 | 117.46047 | 40070 ft | 417 kts | 278° |
| 2026-05-04 06:15 | 36.81568 | 117.38880 | 40103 ft | 417 kts | 279° |
| 2026-05-04 06:16 | 36.82259 | 117.31667 | 40102 ft | 416 kts | 279° |
| 2026-05-04 06:16 | 36.83767 | 117.24721 | 40067 ft | 417 kts | 292° |
| 2026-05-04 06:17 | 36.86686 | 117.18481 | 40047 ft | 417 kts | 307° |
| 2026-05-04 06:17 | 36.90755 | 117.13357 | 40036 ft | 417 kts | 317° |
| 2026-05-04 06:18 | 36.95108 | 117.08604 | 40060 ft | 416 kts | 316° |
| 2026-05-04 06:20 | 37.12571 | 116.89435 | 40056 ft | 417 kts | 316° |
| 2026-05-04 06:21 | 37.24210 | 116.78591 | 40063 ft | 423 kts | 335° |
| 2026-05-04 06:22 | 37.29811 | 116.76340 | 40050 ft | 426 kts | 339° |
| 2026-05-04 06:25 | 37.69489 | 116.61284 | 37601 ft | 414 kts | 340° |
| 2026-05-04 06:25 | 37.72240 | 116.60233 | 36998 ft | 411 kts | 340° |
| 2026-05-04 06:26 | 37.74987 | 116.59186 | 36460 ft | 409 kts | 340° |
| 2026-05-04 06:26 | 37.77711 | 116.58144 | 35973 ft | 411 kts | 341° |
| 2026-05-04 06:26 | 37.80458 | 116.57091 | 35413 ft | 414 kts | 341° |
| 2026-05-04 06:26 | 37.83195 | 116.56042 | 34828 ft | 414 kts | 341° |
| 2026-05-04 06:27 | 37.94161 | 116.51830 | 32639 ft | 414 kts | 341° |
| 2026-05-04 06:28 | 37.96832 | 116.50563 | 32101 ft | 415 kts | 334° |
| 2026-05-04 06:28 | 37.99364 | 116.48776 | 31505 ft | 415 kts | 326° |
| 2026-05-04 06:28 | 38.01716 | 116.46655 | 30983 ft | 417 kts | 323° |
| 2026-05-04 06:28 | 38.04069 | 116.44495 | 30419 ft | 419 kts | 324° |
| 2026-05-04 06:29 | 38.06426 | 116.42334 | 29866 ft | 420 kts | 324° |
| 2026-05-04 06:29 | 38.08797 | 116.40159 | 29281 ft | 422 kts | 324° |
| 2026-05-04 06:29 | 38.11149 | 116.38000 | 28753 ft | 423 kts | 324° |
| 2026-05-04 06:29 | 38.13537 | 116.35805 | 28169 ft | 420 kts | 324° |
| 2026-05-04 06:30 | 38.15913 | 116.33621 | 27628 ft | 417 kts | 324° |
| 2026-05-04 06:30 | 38.18248 | 116.31473 | 27054 ft | 414 kts | 324° |
| 2026-05-04 06:30 | 38.20554 | 116.29349 | 26608 ft | 409 kts | 324° |
| 2026-05-04 06:30 | 38.22915 | 116.27323 | 26086 ft | 410 kts | 330° |
| 2026-05-04 06:31 | 38.25543 | 116.26023 | 25503 ft | 408 kts | 345° |
| 2026-05-04 06:31 | 38.28374 | 116.25647 | 24914 ft | 406 kts | 360° |
| 2026-05-04 06:31 | 38.31150 | 116.26197 | 24308 ft | 407 kts | 11° |
| 2026-05-04 06:31 | 38.33869 | 116.27136 | 23791 ft | 403 kts | 13° |
| 2026-05-04 06:32 | 38.36552 | 116.28062 | 23253 ft | 402 kts | 13° |
| 2026-05-04 06:33 | 38.54938 | 116.34405 | 19629 ft | 381 kts | 13° |
| 2026-05-04 06:34 | 38.57495 | 116.35296 | 19116 ft | 378 kts | 14° |
| 2026-05-04 06:34 | 38.59949 | 116.36476 | 18584 ft | 377 kts | 21° |
| 2026-05-04 06:34 | 38.62334 | 116.37785 | 18278 ft | 372 kts | 21° |
| 2026-05-04 06:34 | 38.64713 | 116.39080 | 18143 ft | 373 kts | 21° |
| 2026-05-04 06:35 | 38.67106 | 116.40383 | 18020 ft | 374 kts | 21° |
| 2026-05-04 06:36 | 38.83699 | 116.49416 | 15709 ft | 359 kts | 20° |
| 2026-05-04 06:37 | 38.85994 | 116.50665 | 15601 ft | 357 kts | 20° |
| 2026-05-04 06:37 | 38.88289 | 116.51916 | 15588 ft | 358 kts | 20° |
| 2026-05-04 06:37 | 38.90593 | 116.53171 | 15254 ft | 362 kts | 20° |
| 2026-05-04 06:37 | 38.92871 | 116.54414 | 14814 ft | 356 kts | 20° |
| 2026-05-04 06:38 | 38.95134 | 116.55649 | 14362 ft | 353 kts | 20° |
| 2026-05-04 06:38 | 38.97379 | 116.56875 | 13910 ft | 348 kts | 20° |
| 2026-05-04 06:40 | 39.11910 | 116.64826 | 11914 ft | 311 kts | 19° |
| 2026-05-04 06:40 | 39.13869 | 116.65903 | 11709 ft | 298 kts | 20° |
| 2026-05-04 06:40 | 39.15789 | 116.66956 | 11683 ft | 299 kts | 20° |
| 2026-05-04 06:40 | 39.17682 | 116.67993 | 11677 ft | 298 kts | 20° |
| 2026-05-04 06:41 | 39.19598 | 116.69044 | 11679 ft | 297 kts | 20° |
| 2026-05-04 06:41 | 39.21503 | 116.70091 | 11676 ft | 297 kts | 20° |
| 2026-05-04 06:41 | 39.23423 | 116.71145 | 11675 ft | 298 kts | 19° |
| 2026-05-04 06:41 | 39.25335 | 116.72196 | 11721 ft | 298 kts | 20° |
| 2026-05-04 06:42 | 39.27229 | 116.73238 | 11744 ft | 299 kts | 20° |
| 2026-05-04 06:42 | 39.29156 | 116.74298 | 11750 ft | 299 kts | 20° |
| 2026-05-04 06:42 | 39.31059 | 116.75346 | 11758 ft | 299 kts | 20° |
| 2026-05-04 06:44 | 39.44439 | 116.82735 | 10216 ft | 291 kts | 19° |
| 2026-05-04 06:44 | 39.46245 | 116.83716 | 10057 ft | 276 kts | 15° |
| 2026-05-04 06:44 | 39.48080 | 116.84006 | 10010 ft | 264 kts | 352° |
| 2026-05-04 06:45 | 39.49908 | 116.83679 | 10034 ft | 266 kts | 349° |
| 2026-05-04 06:45 | 39.51741 | 116.83343 | 9958 ft | 269 kts | 350° |
| 2026-05-04 06:45 | 39.53590 | 116.83009 | 9689 ft | 269 kts | 349° |
| 2026-05-04 06:45 | 39.55438 | 116.82674 | 9360 ft | 267 kts | 349° |
| 2026-05-04 06:46 | 39.57278 | 116.82341 | 9214 ft | 265 kts | 349° |
| 2026-05-04 06:46 | 39.59109 | 116.82008 | 9206 ft | 266 kts | 349° |
| 2026-05-04 06:46 | 39.60953 | 116.81673 | 9190 ft | 267 kts | 349° |
| 2026-05-04 06:46 | 39.62785 | 116.81341 | 9191 ft | 267 kts | 349° |
| 2026-05-04 06:48 | 39.75721 | 116.78986 | 9172 ft | 269 kts | 349° |
| 2026-05-04 06:48 | 39.77569 | 116.78649 | 9170 ft | 269 kts | 349° |
| 2026-05-04 06:49 | 39.79425 | 116.78310 | 9176 ft | 268 kts | 349° |
| 2026-05-04 06:50 | 39.92420 | 116.75932 | 8815 ft | 275 kts | 349° |
| 2026-05-04 06:51 | 39.94312 | 116.75585 | 8391 ft | 273 kts | 349° |
| 2026-05-04 06:51 | 39.96167 | 116.75245 | 7962 ft | 272 kts | 349° |
| 2026-05-04 06:51 | 39.98056 | 116.74899 | 7534 ft | 270 kts | 349° |
| 2026-05-04 06:51 | 39.99902 | 116.74560 | 7094 ft | 271 kts | 349° |
| 2026-05-04 06:52 | 40.01767 | 116.74216 | 6646 ft | 273 kts | 349° |
| 2026-05-04 06:52 | 40.03668 | 116.73867 | 6192 ft | 274 kts | 350° |
| 2026-05-04 06:52 | 40.05517 | 116.73571 | 5955 ft | 262 kts | 351° |
| 2026-05-04 06:52 | 40.07281 | 116.73304 | 5851 ft | 247 kts | 351° |
| 2026-05-04 06:53 | 40.08953 | 116.73048 | 5434 ft | 243 kts | 351° |
| 2026-05-04 06:53 | 40.10603 | 116.72794 | 4971 ft | 237 kts | 351° |
| 2026-05-04 06:53 | 40.12226 | 116.72543 | 4526 ft | 231 kts | 351° |
| 2026-05-04 06:53 | 40.13803 | 116.72300 | 4085 ft | 227 kts | 351° |
| 2026-05-04 06:54 | 40.15367 | 116.72059 | 3637 ft | 224 kts | 351° |
| 2026-05-04 06:54 | 40.16904 | 116.71821 | 3189 ft | 222 kts | 351° |
| 2026-05-04 06:54 | 40.18422 | 116.71586 | 2744 ft | 220 kts | 351° |
| 2026-05-04 06:54 | 40.19943 | 116.71350 | 2293 ft | 219 kts | 351° |
| 2026-05-04 06:55 | 40.21407 | 116.71124 | 2052 ft | 207 kts | 351° |
| 2026-05-04 06:55 | 40.22790 | 116.70909 | 2033 ft | 197 kts | 351° |
| 2026-05-04 06:55 | 40.24036 | 116.70248 | 2006 ft | 193 kts | 314° |
| 2026-05-04 06:55 | 40.24596 | 116.68745 | 2013 ft | 184 kts | 270° |
| 2026-05-04 06:56 | 40.24563 | 116.67089 | 2030 ft | 183 kts | 263° |
| 2026-05-04 06:57 | 40.20298 | 116.59539 | 2022 ft | 177 kts | 175° |
| 2026-05-04 06:58 | 40.19059 | 116.59709 | 2021 ft | 178 kts | 175° |
| 2026-05-04 06:58 | 40.17823 | 116.59892 | 1845 ft | 181 kts | 175° |
| 2026-05-04 06:58 | 40.16573 | 116.60085 | 1606 ft | 177 kts | 174° |
| 2026-05-04 06:58 | 40.15408 | 116.60269 | 1365 ft | 156 kts | 176° |
| 2026-05-04 06:59 | 40.14411 | 116.60429 | 1179 ft | 134 kts | 174° |
| 2026-05-04 06:59 | 40.13561 | 116.60563 | 1014 ft | 128 kts | 177° |
| 2026-05-04 06:59 | 40.12688 | 116.60695 | 800 ft | 126 kts | 176° |
| 2026-05-04 06:59 | 40.11842 | 116.60827 | 615 ft | 121 kts | 177° |
| 2026-05-04 07:01 | 40.07675 | 116.61351 | 122 ft | 0 kts | 203° |
| 2026-05-04 07:02 | 40.07634 | 116.61329 | 122 ft | 11 kts | 202° |
| 2026-05-04 07:02 | 40.07557 | 116.61265 | 122 ft | 15 kts | 242° |
| 2026-05-04 07:02 | 40.07541 | 116.61123 | 122 ft | 16 kts | 263° |
| 2026-05-04 07:03 | 40.07529 | 116.60990 | 122 ft | 5 kts | 263° |
| 2026-05-04 07:03 | 40.07528 | 116.60986 | 122 ft | 0 kts | 263° |
| 2026-05-04 07:03 | 40.07526 | 116.60966 | 122 ft | 9 kts | 264° |
| 2026-05-04 07:03 | 40.07473 | 116.60894 | 122 ft | 13 kts | 179° |
| 2026-05-04 07:04 | 40.07373 | 116.60910 | 122 ft | 10 kts | 173° |
| 2026-05-04 07:04 | 40.07348 | 116.60952 | 122 ft | 8 kts | 84° |
| 2026-05-04 07:04 | 40.07357 | 116.61037 | 122 ft | 3 kts | 82° |